Zehner, Canada
Current Conditions -  °F | °C
As of 5:00 AM on Thursday 23 Oct 2014 (Local Time) from CYQR Reporting Station
Clear Clear  
Wind Chill: 26°   Ceiling: Unl
Heat Index: 32°   Visibility: 15mi
Dew Point: 30°   Wind: 7mph
Humidity: 93%   Direction: 130°SE
Pressure: 29.76"   Gusts: NA
Location:  50.57°N, 104.46°W
Report Text: CYQR 231100Z 13006KT 15SM SKC M00/M01 A2976 RMK SLP096
Loading
Personal Weather Stations






























Interactive Weather Map
Tropical Storm Tracking
New forecast layout! Learn more

10-Day Weather Forecast

Advertisements
Track Severe Weather on mobile